Ar Rutbah, Iraq
Current Conditions -  °F | °C
As of 1:55 AM on Monday 22 Dec 2014 (Local Time) from KQAJ Reporting Station
Few Clouds Few Clouds  
Wind Chill: 54°   Ceiling: Unl
Heat Index: 54°   Visibility: 6mi
Dew Point: 40°   Wind: 7mph
Humidity: 59%   Direction: 300°WNW
Pressure: 30.06"   Gusts: NA
Location:  33.04°N, 40.3°E
Report Text: KQAJ 212255Z 30006KT 9999 FEW090 12/05 A3006 RMK SLP178 T01220045
Loading
Personal Weather Stations






























Interactive Weather Map New forecast layout! Learn more

10-Day Weather Forecast

Advertisements
Track Severe Weather on mobile